Casar, North Carolina
Current Conditions -  °F | °C
As of 10:35 AM on Thursday 30 Oct 2014 (Local Time) from KEHO Reporting Station
Clear Clear  
Wind Chill: 56°   Ceiling: Unl
Heat Index: 56°   Visibility: 10mi
Dew Point: 40°   Wind: 7mph
Humidity: 54%   Direction: 40°NE
Pressure: 30.09"   Gusts: NA
Location:  35.51°N, 81.62°W
Report Text: KEHO 301435Z AUTO 04006KT 10SM CLR 13/04 A3009 RMK AO2 T01340042
Loading
Personal Weather Stations






























Interactive Weather Map
Tropical Storm Tracking
New forecast layout! Learn more

10-Day Weather Forecast

Advertisements
Track Severe Weather on mobile